sensor_id;sensor_type;location;lat;lon;timestamp;temperature;humidity
21540;DHT22;10931;52.164;5.518;2023-06-19T00:05:12;28.40;49.50
21540;DHT22;10931;52.164;5.518;2023-06-19T00:10:33;28.40;49.50
21540;DHT22;10931;52.164;5.518;2023-06-19T00:13:13;28.40;49.50
21540;DHT22;10931;52.164;5.518;2023-06-19T00:15:51;28.40;49.50
21540;DHT22;10931;52.164;5.518;2023-06-19T00:18:49;28.40;49.50
21540;DHT22;10931;52.164;5.518;2023-06-19T00:21:24;28.40;49.50
21540;DHT22;10931;52.164;5.518;2023-06-19T00:24:25;28.40;49.50
21540;DHT22;10931;52.164;5.518;2023-06-19T00:30:14;28.30;49.50
21540;DHT22;10931;52.164;5.518;2023-06-19T00:32:48;28.30;49.50
21540;DHT22;10931;52.164;5.518;2023-06-19T00:35:47;28.30;49.50
21540;DHT22;10931;52.164;5.518;2023-06-19T00:40:56;28.30;49.50
21540;DHT22;10931;52.164;5.518;2023-06-19T00:43:22;28.30;49.50
21540;DHT22;10931;52.164;5.518;2023-06-19T00:45:50;28.30;49.50
21540;DHT22;10931;52.164;5.518;2023-06-19T00:48:19;28.30;49.50
21540;DHT22;10931;52.164;5.518;2023-06-19T00:51:00;28.30;49.50
21540;DHT22;10931;52.164;5.518;2023-06-19T00:53:54;28.30;49.50
21540;DHT22;10931;52.164;5.518;2023-06-19T00:56:32;28.30;49.50
21540;DHT22;10931;52.164;5.518;2023-06-19T00:59:11;28.30;49.50
21540;DHT22;10931;52.164;5.518;2023-06-19T01:01:47;28.30;49.50
21540;DHT22;10931;52.164;5.518;2023-06-19T01:04:17;28.30;49.50
21540;DHT22;10931;52.164;5.518;2023-06-19T01:07:07;28.30;49.50
21540;DHT22;10931;52.164;5.518;2023-06-19T01:09:58;28.30;49.50
21540;DHT22;10931;52.164;5.518;2023-06-19T01:13:01;28.20;49.60
21540;DHT22;10931;52.164;5.518;2023-06-19T01:20:57;28.20;49.50
21540;DHT22;10931;52.164;5.518;2023-06-19T01:23:37;28.30;49.60
21540;DHT22;10931;52.164;5.518;2023-06-19T01:26:06;28.20;49.60
21540;DHT22;10931;52.164;5.518;2023-06-19T01:28:37;28.20;49.60
21540;DHT22;10931;52.164;5.518;2023-06-19T01:31:21;28.30;49.70
21540;DHT22;10931;52.164;5.518;2023-06-19T01:33:50;28.20;49.70
21540;DHT22;10931;52.164;5.518;2023-06-19T01:36:21;28.20;49.70
21540;DHT22;10931;52.164;5.518;2023-06-19T01:39:28;28.20;49.80
21540;DHT22;10931;52.164;5.518;2023-06-19T01:42:05;28.20;49.90
21540;DHT22;10931;52.164;5.518;2023-06-19T01:44:35;28.20;49.80
21540;DHT22;10931;52.164;5.518;2023-06-19T01:47:16;28.20;49.80
21540;DHT22;10931;52.164;5.518;2023-06-19T01:50:09;28.20;49.90
21540;DHT22;10931;52.164;5.518;2023-06-19T01:52:37;28.20;49.90
21540;DHT22;10931;52.164;5.518;2023-06-19T01:55:05;28.20;49.90
21540;DHT22;10931;52.164;5.518;2023-06-19T01:57:31;28.20;50.00
21540;DHT22;10931;52.164;5.518;2023-06-19T02:00:00;28.20;50.00
21540;DHT22;10931;52.164;5.518;2023-06-19T02:02:26;28.20;50.00
21540;DHT22;10931;52.164;5.518;2023-06-19T02:04:54;28.20;50.10
21540;DHT22;10931;52.164;5.518;2023-06-19T02:07:33;28.10;50.00
21540;DHT22;10931;52.164;5.518;2023-06-19T02:10:02;28.10;50.00
21540;DHT22;10931;52.164;5.518;2023-06-19T02:12:28;28.10;50.40
21540;DHT22;10931;52.164;5.518;2023-06-19T02:14:54;28.20;50.20
21540;DHT22;10931;52.164;5.518;2023-06-19T02:17:19;28.20;50.20
21540;DHT22;10931;52.164;5.518;2023-06-19T02:19:45;28.10;50.10
21540;DHT22;10931;52.164;5.518;2023-06-19T02:22:10;28.10;50.20
21540;DHT22;10931;52.164;5.518;2023-06-19T02:24:36;28.20;50.30
21540;DHT22;10931;52.164;5.518;2023-06-19T02:27:02;28.10;50.20
21540;DHT22;10931;52.164;5.518;2023-06-19T02:29:28;28.10;50.20
21540;DHT22;10931;52.164;5.518;2023-06-19T02:31:59;28.10;50.30
21540;DHT22;10931;52.164;5.518;2023-06-19T02:34:25;28.10;50.40
21540;DHT22;10931;52.164;5.518;2023-06-19T02:36:51;28.10;50.40
21540;DHT22;10931;52.164;5.518;2023-06-19T02:39:17;28.10;50.40
21540;DHT22;10931;52.164;5.518;2023-06-19T02:41:43;28.10;50.50
21540;DHT22;10931;52.164;5.518;2023-06-19T02:44:11;28.10;50.50
21540;DHT22;10931;52.164;5.518;2023-06-19T02:46:37;28.10;50.50
21540;DHT22;10931;52.164;5.518;2023-06-19T02:49:03;28.10;50.50
21540;DHT22;10931;52.164;5.518;2023-06-19T02:51:29;28.10;50.60
21540;DHT22;10931;52.164;5.518;2023-06-19T02:53:55;28.10;50.60
21540;DHT22;10931;52.164;5.518;2023-06-19T02:56:21;28.10;50.70
21540;DHT22;10931;52.164;5.518;2023-06-19T02:58:47;28.10;50.70
21540;DHT22;10931;52.164;5.518;2023-06-19T03:01:12;28.10;50.80
21540;DHT22;10931;52.164;5.518;2023-06-19T03:03:38;28.10;50.80
21540;DHT22;10931;52.164;5.518;2023-06-19T03:06:07;28.10;50.80
21540;DHT22;10931;52.164;5.518;2023-06-19T03:08:34;28.10;50.90
21540;DHT22;10931;52.164;5.518;2023-06-19T03:11:00;28.10;50.90
21540;DHT22;10931;52.164;5.518;2023-06-19T03:13:27;28.00;50.90
21540;DHT22;10931;52.164;5.518;2023-06-19T03:15:52;28.00;50.90
21540;DHT22;10931;52.164;5.518;2023-06-19T03:18:20;28.00;50.90
21540;DHT22;10931;52.164;5.518;2023-06-19T03:20:46;28.00;51.00
21540;DHT22;10931;52.164;5.518;2023-06-19T03:23:11;28.00;51.00
21540;DHT22;10931;52.164;5.518;2023-06-19T03:25:37;28.00;51.00
21540;DHT22;10931;52.164;5.518;2023-06-19T03:28:08;28.00;51.10
21540;DHT22;10931;52.164;5.518;2023-06-19T03:30:34;28.10;51.20
21540;DHT22;10931;52.164;5.518;2023-06-19T03:32:59;28.00;51.20
21540;DHT22;10931;52.164;5.518;2023-06-19T03:35:25;28.00;51.20
21540;DHT22;10931;52.164;5.518;2023-06-19T03:37:51;28.00;51.20
21540;DHT22;10931;52.164;5.518;2023-06-19T03:40:16;28.00;51.20
21540;DHT22;10931;52.164;5.518;2023-06-19T03:42:42;28.00;51.30
21540;DHT22;10931;52.164;5.518;2023-06-19T03:45:08;28.00;51.30
21540;DHT22;10931;52.164;5.518;2023-06-19T03:47:34;28.00;51.30
21540;DHT22;10931;52.164;5.518;2023-06-19T03:50:00;28.00;51.40
21540;DHT22;10931;52.164;5.518;2023-06-19T03:52:25;28.00;51.40
21540;DHT22;10931;52.164;5.518;2023-06-19T03:54:51;28.00;51.50
21540;DHT22;10931;52.164;5.518;2023-06-19T03:57:16;28.00;51.50
21540;DHT22;10931;52.164;5.518;2023-06-19T03:59:42;28.00;51.50
21540;DHT22;10931;52.164;5.518;2023-06-19T04:02:08;28.00;52.20
21540;DHT22;10931;52.164;5.518;2023-06-19T04:04:33;28.00;51.60
21540;DHT22;10931;52.164;5.518;2023-06-19T04:06:59;28.00;51.60
21540;DHT22;10931;52.164;5.518;2023-06-19T04:09:25;28.00;51.70
21540;DHT22;10931;52.164;5.518;2023-06-19T04:11:51;28.00;51.70
21540;DHT22;10931;52.164;5.518;2023-06-19T04:14:17;27.90;51.70
21540;DHT22;10931;52.164;5.518;2023-06-19T04:16:42;28.00;51.80
21540;DHT22;10931;52.164;5.518;2023-06-19T04:19:08;28.00;51.90
21540;DHT22;10931;52.164;5.518;2023-06-19T04:21:34;27.90;51.80
21540;DHT22;10931;52.164;5.518;2023-06-19T04:23:59;27.90;51.90
21540;DHT22;10931;52.164;5.518;2023-06-19T04:26:25;27.90;51.90
21540;DHT22;10931;52.164;5.518;2023-06-19T04:28:51;27.90;52.00
21540;DHT22;10931;52.164;5.518;2023-06-19T04:31:16;27.90;52.00
21540;DHT22;10931;52.164;5.518;2023-06-19T04:33:45;28.00;52.10
21540;DHT22;10931;52.164;5.518;2023-06-19T04:36:11;27.90;52.10
21540;DHT22;10931;52.164;5.518;2023-06-19T04:38:39;28.00;52.20
21540;DHT22;10931;52.164;5.518;2023-06-19T04:41:05;27.90;52.20
21540;DHT22;10931;52.164;5.518;2023-06-19T04:43:30;27.90;52.20
21540;DHT22;10931;52.164;5.518;2023-06-19T04:45:56;27.90;52.30
21540;DHT22;10931;52.164;5.518;2023-06-19T04:48:22;27.90;52.40
21540;DHT22;10931;52.164;5.518;2023-06-19T04:50:51;27.90;52.50
21540;DHT22;10931;52.164;5.518;2023-06-19T04:53:17;27.90;52.50
21540;DHT22;10931;52.164;5.518;2023-06-19T04:55:43;27.90;52.50
21540;DHT22;10931;52.164;5.518;2023-06-19T04:58:11;27.90;52.50
21540;DHT22;10931;52.164;5.518;2023-06-19T05:00:46;27.90;52.60
21540;DHT22;10931;52.164;5.518;2023-06-19T05:03:19;27.90;52.60
21540;DHT22;10931;52.164;5.518;2023-06-19T05:05:45;27.90;52.70
21540;DHT22;10931;52.164;5.518;2023-06-19T05:08:11;27.90;52.70
21540;DHT22;10931;52.164;5.518;2023-06-19T05:10:37;27.90;52.80
21540;DHT22;10931;52.164;5.518;2023-06-19T05:13:03;27.90;52.80
21540;DHT22;10931;52.164;5.518;2023-06-19T05:15:29;27.90;52.90
21540;DHT22;10931;52.164;5.518;2023-06-19T05:18:05;27.90;52.90
21540;DHT22;10931;52.164;5.518;2023-06-19T05:20:33;27.90;53.00
21540;DHT22;10931;52.164;5.518;2023-06-19T05:22:59;27.90;53.00
21540;DHT22;10931;52.164;5.518;2023-06-19T05:25:25;27.90;53.10
21540;DHT22;10931;52.164;5.518;2023-06-19T05:27:53;27.80;53.00
21540;DHT22;10931;52.164;5.518;2023-06-19T05:30:18;27.90;53.10
21540;DHT22;10931;52.164;5.518;2023-06-19T05:32:46;27.80;53.10
21540;DHT22;10931;52.164;5.518;2023-06-19T05:35:12;27.80;53.10
21540;DHT22;10931;52.164;5.518;2023-06-19T05:37:37;27.90;53.20
21540;DHT22;10931;52.164;5.518;2023-06-19T05:40:05;27.80;53.20
21540;DHT22;10931;52.164;5.518;2023-06-19T05:42:32;27.90;53.30
21540;DHT22;10931;52.164;5.518;2023-06-19T05:44:58;27.80;53.30
21540;DHT22;10931;52.164;5.518;2023-06-19T05:47:24;27.80;53.30
21540;DHT22;10931;52.164;5.518;2023-06-19T05:49:51;27.80;53.30
21540;DHT22;10931;52.164;5.518;2023-06-19T05:52:16;27.80;53.30
21540;DHT22;10931;52.164;5.518;2023-06-19T05:54:42;27.80;53.40
21540;DHT22;10931;52.164;5.518;2023-06-19T05:57:08;27.90;53.50
21540;DHT22;10931;52.164;5.518;2023-06-19T05:59:37;27.80;53.50
21540;DHT22;10931;52.164;5.518;2023-06-19T06:02:02;27.80;53.40
21540;DHT22;10931;52.164;5.518;2023-06-19T06:04:28;27.80;53.50
21540;DHT22;10931;52.164;5.518;2023-06-19T06:06:56;27.80;53.50
21540;DHT22;10931;52.164;5.518;2023-06-19T06:09:21;27.80;53.50
21540;DHT22;10931;52.164;5.518;2023-06-19T06:11:47;27.80;53.60
21540;DHT22;10931;52.164;5.518;2023-06-19T06:14:14;27.80;53.60
21540;DHT22;10931;52.164;5.518;2023-06-19T06:16:41;27.80;53.60
21540;DHT22;10931;52.164;5.518;2023-06-19T06:19:06;27.80;53.70
21540;DHT22;10931;52.164;5.518;2023-06-19T06:21:32;27.80;53.70
21540;DHT22;10931;52.164;5.518;2023-06-19T06:24:02;27.80;53.70
21540;DHT22;10931;52.164;5.518;2023-06-19T06:26:28;27.80;53.80
21540;DHT22;10931;52.164;5.518;2023-06-19T06:29:00;27.80;53.80
21540;DHT22;10931;52.164;5.518;2023-06-19T06:31:26;27.80;53.80
21540;DHT22;10931;52.164;5.518;2023-06-19T06:34:12;27.80;53.80
21540;DHT22;10931;52.164;5.518;2023-06-19T06:36:39;27.80;53.90
21540;DHT22;10931;52.164;5.518;2023-06-19T06:39:10;27.80;53.90
21540;DHT22;10931;52.164;5.518;2023-06-19T06:41:41;27.80;53.90
21540;DHT22;10931;52.164;5.518;2023-06-19T06:44:07;27.80;53.90
21540;DHT22;10931;52.164;5.518;2023-06-19T06:46:32;27.80;53.90
21540;DHT22;10931;52.164;5.518;2023-06-19T06:48:58;27.80;53.90
21540;DHT22;10931;52.164;5.518;2023-06-19T06:51:24;27.70;53.80
21540;DHT22;10931;52.164;5.518;2023-06-19T06:53:50;27.80;53.90
21540;DHT22;10931;52.164;5.518;2023-06-19T06:56:18;27.80;54.00
21540;DHT22;10931;52.164;5.518;2023-06-19T06:58:44;27.80;53.90
21540;DHT22;10931;52.164;5.518;2023-06-19T07:01:12;27.80;54.00
21540;DHT22;10931;52.164;5.518;2023-06-19T07:03:38;27.80;54.00
21540;DHT22;10931;52.164;5.518;2023-06-19T07:06:04;27.70;53.90
21540;DHT22;10931;52.164;5.518;2023-06-19T07:08:30;27.80;54.00
21540;DHT22;10931;52.164;5.518;2023-06-19T07:10:56;27.70;53.80
21540;DHT22;10931;52.164;5.518;2023-06-19T07:13:22;27.70;53.90
21540;DHT22;10931;52.164;5.518;2023-06-19T07:15:48;27.80;54.00
21540;DHT22;10931;52.164;5.518;2023-06-19T07:18:13;27.70;53.90
21540;DHT22;10931;52.164;5.518;2023-06-19T07:20:43;27.80;54.00
21540;DHT22;10931;52.164;5.518;2023-06-19T07:23:10;27.80;54.00
21540;DHT22;10931;52.164;5.518;2023-06-19T07:25:36;27.70;53.90
21540;DHT22;10931;52.164;5.518;2023-06-19T07:28:01;27.70;53.90
21540;DHT22;10931;52.164;5.518;2023-06-19T07:30:30;27.70;53.80
21540;DHT22;10931;52.164;5.518;2023-06-19T07:32:55;27.70;53.90
21540;DHT22;10931;52.164;5.518;2023-06-19T07:35:21;27.70;53.80
21540;DHT22;10931;52.164;5.518;2023-06-19T07:37:47;27.70;53.80
21540;DHT22;10931;52.164;5.518;2023-06-19T07:40:12;27.70;53.80
21540;DHT22;10931;52.164;5.518;2023-06-19T07:42:38;27.70;53.80
21540;DHT22;10931;52.164;5.518;2023-06-19T07:45:04;27.70;53.80
21540;DHT22;10931;52.164;5.518;2023-06-19T07:47:30;27.70;53.80
21540;DHT22;10931;52.164;5.518;2023-06-19T07:49:56;27.70;53.80
21540;DHT22;10931;52.164;5.518;2023-06-19T07:52:22;27.70;53.80
21540;DHT22;10931;52.164;5.518;2023-06-19T07:54:55;27.70;53.80
21540;DHT22;10931;52.164;5.518;2023-06-19T07:57:21;27.70;53.80
21540;DHT22;10931;52.164;5.518;2023-06-19T07:59:48;27.70;53.80
21540;DHT22;10931;52.164;5.518;2023-06-19T08:02:32;27.70;53.80
21540;DHT22;10931;52.164;5.518;2023-06-19T08:05:06;27.70;53.90
21540;DHT22;10931;52.164;5.518;2023-06-19T08:07:33;27.70;53.90
21540;DHT22;10931;52.164;5.518;2023-06-19T08:09:59;27.70;53.90
21540;DHT22;10931;52.164;5.518;2023-06-19T08:12:25;27.70;53.90
21540;DHT22;10931;52.164;5.518;2023-06-19T08:14:50;27.70;53.90
21540;DHT22;10931;52.164;5.518;2023-06-19T08:17:16;27.70;53.90
21540;DHT22;10931;52.164;5.518;2023-06-19T08:19:42;27.70;53.90
21540;DHT22;10931;52.164;5.518;2023-06-19T08:22:08;27.70;53.90
21540;DHT22;10931;52.164;5.518;2023-06-19T08:24:35;27.70;53.90
21540;DHT22;10931;52.164;5.518;2023-06-19T08:27:06;27.70;53.90
21540;DHT22;10931;52.164;5.518;2023-06-19T08:29:32;27.70;53.90
21540;DHT22;10931;52.164;5.518;2023-06-19T08:31:57;27.70;53.90
21540;DHT22;10931;52.164;5.518;2023-06-19T08:34:23;27.70;53.90
21540;DHT22;10931;52.164;5.518;2023-06-19T08:36:49;27.70;53.90
21540;DHT22;10931;52.164;5.518;2023-06-19T08:39:15;27.70;53.90
21540;DHT22;10931;52.164;5.518;2023-06-19T08:41:42;27.70;53.90
21540;DHT22;10931;52.164;5.518;2023-06-19T08:44:08;27.70;54.00
21540;DHT22;10931;52.164;5.518;2023-06-19T08:46:34;27.70;53.90
21540;DHT22;10931;52.164;5.518;2023-06-19T08:49:02;27.70;53.90
21540;DHT22;10931;52.164;5.518;2023-06-19T08:51:28;27.70;54.00
21540;DHT22;10931;52.164;5.518;2023-06-19T08:53:59;27.70;53.90
21540;DHT22;10931;52.164;5.518;2023-06-19T08:56:25;27.70;53.90
21540;DHT22;10931;52.164;5.518;2023-06-19T08:58:51;27.70;54.00
21540;DHT22;10931;52.164;5.518;2023-06-19T09:01:18;27.70;54.00
21540;DHT22;10931;52.164;5.518;2023-06-19T09:03:50;27.70;54.00
21540;DHT22;10931;52.164;5.518;2023-06-19T09:06:17;27.80;54.10
21540;DHT22;10931;52.164;5.518;2023-06-19T09:08:43;27.70;54.00
21540;DHT22;10931;52.164;5.518;2023-06-19T09:11:10;27.70;54.00
21540;DHT22;10931;52.164;5.518;2023-06-19T09:13:36;27.70;54.00
21540;DHT22;10931;52.164;5.518;2023-06-19T09:16:11;27.70;54.10
21540;DHT22;10931;52.164;5.518;2023-06-19T09:18:44;27.70;54.00
21540;DHT22;10931;52.164;5.518;2023-06-19T09:21:20;27.80;54.10
21540;DHT22;10931;52.164;5.518;2023-06-19T09:23:48;27.70;54.10
21540;DHT22;10931;52.164;5.518;2023-06-19T09:26:17;27.80;54.20
21540;DHT22;10931;52.164;5.518;2023-06-19T09:28:44;27.70;54.20
21540;DHT22;10931;52.164;5.518;2023-06-19T09:31:10;27.80;54.30
21540;DHT22;10931;52.164;5.518;2023-06-19T09:33:42;27.70;54.20
21540;DHT22;10931;52.164;5.518;2023-06-19T09:36:07;27.70;54.20
21540;DHT22;10931;52.164;5.518;2023-06-19T09:38:36;27.80;54.30
21540;DHT22;10931;52.164;5.518;2023-06-19T09:41:05;27.80;54.30
21540;DHT22;10931;52.164;5.518;2023-06-19T09:43:37;27.80;54.30
21540;DHT22;10931;52.164;5.518;2023-06-19T09:46:04;27.80;54.40
21540;DHT22;10931;52.164;5.518;2023-06-19T09:48:41;27.80;54.40
21540;DHT22;10931;52.164;5.518;2023-06-19T09:51:17;27.80;54.30
21540;DHT22;10931;52.164;5.518;2023-06-19T09:53:45;27.80;54.30
21540;DHT22;10931;52.164;5.518;2023-06-19T09:56:13;27.80;54.30
21540;DHT22;10931;52.164;5.518;2023-06-19T09:58:46;27.80;54.30
21540;DHT22;10931;52.164;5.518;2023-06-19T10:01:15;27.80;54.30
21540;DHT22;10931;52.164;5.518;2023-06-19T10:06:26;27.80;54.30
21540;DHT22;10931;52.164;5.518;2023-06-19T10:08:52;27.90;54.40
21540;DHT22;10931;52.164;5.518;2023-06-19T10:11:18;27.80;54.30
21540;DHT22;10931;52.164;5.518;2023-06-19T10:13:43;27.80;54.30
21540;DHT22;10931;52.164;5.518;2023-06-19T10:16:20;27.80;54.30
21540;DHT22;10931;52.164;5.518;2023-06-19T10:18:47;27.80;54.30
21540;DHT22;10931;52.164;5.518;2023-06-19T10:21:17;27.80;54.30
21540;DHT22;10931;52.164;5.518;2023-06-19T10:23:54;27.90;54.40
21540;DHT22;10931;52.164;5.518;2023-06-19T10:26:30;27.90;54.30
21540;DHT22;10931;52.164;5.518;2023-06-19T10:28:56;27.90;54.30
21540;DHT22;10931;52.164;5.518;2023-06-19T10:31:22;27.90;54.30
21540;DHT22;10931;52.164;5.518;2023-06-19T10:33:47;27.90;54.30
21540;DHT22;10931;52.164;5.518;2023-06-19T10:36:18;27.90;54.30
21540;DHT22;10931;52.164;5.518;2023-06-19T10:38:49;27.90;54.30
21540;DHT22;10931;52.164;5.518;2023-06-19T10:41:28;27.90;54.20
21540;DHT22;10931;52.164;5.518;2023-06-19T10:43:56;27.90;54.20
21540;DHT22;10931;52.164;5.518;2023-06-19T10:46:23;27.90;54.20
21540;DHT22;10931;52.164;5.518;2023-06-19T10:48:54;27.90;54.20
21540;DHT22;10931;52.164;5.518;2023-06-19T10:51:25;27.90;54.20
21540;DHT22;10931;52.164;5.518;2023-06-19T10:53:56;27.90;54.10
21540;DHT22;10931;52.164;5.518;2023-06-19T10:56:23;27.90;54.10
21540;DHT22;10931;52.164;5.518;2023-06-19T10:59:03;27.90;54.10
21540;DHT22;10931;52.164;5.518;2023-06-19T11:01:39;27.90;54.10
21540;DHT22;10931;52.164;5.518;2023-06-19T11:04:06;27.90;54.10
21540;DHT22;10931;52.164;5.518;2023-06-19T11:06:33;27.90;54.00
21540;DHT22;10931;52.164;5.518;2023-06-19T11:09:03;28.00;54.10
21540;DHT22;10931;52.164;5.518;2023-06-19T11:11:50;28.00;54.00
21540;DHT22;10931;52.164;5.518;2023-06-19T11:14:16;28.00;54.00
21540;DHT22;10931;52.164;5.518;2023-06-19T11:16:44;28.00;54.00
21540;DHT22;10931;52.164;5.518;2023-06-19T11:19:15;28.00;53.90
21540;DHT22;10931;52.164;5.518;2023-06-19T11:21:47;28.00;53.90
21540;DHT22;10931;52.164;5.518;2023-06-19T11:24:19;28.00;53.90
21540;DHT22;10931;52.164;5.518;2023-06-19T11:26:49;28.00;53.90
21540;DHT22;10931;52.164;5.518;2023-06-19T11:29:18;28.00;53.80
21540;DHT22;10931;52.164;5.518;2023-06-19T11:31:45;28.00;53.80
21540;DHT22;10931;52.164;5.518;2023-06-19T11:34:11;28.10;53.80
21540;DHT22;10931;52.164;5.518;2023-06-19T11:36:38;28.10;53.80
21540;DHT22;10931;52.164;5.518;2023-06-19T11:39:04;28.10;53.80
21540;DHT22;10931;52.164;5.518;2023-06-19T11:41:34;28.10;53.80
21540;DHT22;10931;52.164;5.518;2023-06-19T11:44:02;28.10;53.80
21540;DHT22;10931;52.164;5.518;2023-06-19T11:46:32;28.10;53.80
21540;DHT22;10931;52.164;5.518;2023-06-19T11:49:12;28.10;53.80
21540;DHT22;10931;52.164;5.518;2023-06-19T11:51:38;28.10;53.70
21540;DHT22;10931;52.164;5.518;2023-06-19T11:54:08;28.20;53.70
21540;DHT22;10931;52.164;5.518;2023-06-19T11:56:38;28.20;53.70
21540;DHT22;10931;52.164;5.518;2023-06-19T11:59:04;28.20;53.70
21540;DHT22;10931;52.164;5.518;2023-06-19T12:01:34;28.20;53.70
21540;DHT22;10931;52.164;5.518;2023-06-19T12:04:01;28.20;53.60
21540;DHT22;10931;52.164;5.518;2023-06-19T12:06:28;28.20;53.60
21540;DHT22;10931;52.164;5.518;2023-06-19T12:08:53;28.20;53.60
21540;DHT22;10931;52.164;5.518;2023-06-19T12:11:19;28.20;53.50
21540;DHT22;10931;52.164;5.518;2023-06-19T12:13:47;28.30;53.60
21540;DHT22;10931;52.164;5.518;2023-06-19T12:16:14;28.20;53.50
21540;DHT22;10931;52.164;5.518;2023-06-19T12:18:43;28.30;53.50
21540;DHT22;10931;52.164;5.518;2023-06-19T12:21:08;28.30;53.50
21540;DHT22;10931;52.164;5.518;2023-06-19T12:23:34;28.30;53.50
21540;DHT22;10931;52.164;5.518;2023-06-19T12:26:00;28.30;53.40
21540;DHT22;10931;52.164;5.518;2023-06-19T12:28:26;28.30;53.40
21540;DHT22;10931;52.164;5.518;2023-06-19T12:30:52;28.30;53.40
21540;DHT22;10931;52.164;5.518;2023-06-19T12:33:21;28.30;53.30
21540;DHT22;10931;52.164;5.518;2023-06-19T12:35:46;28.40;53.40
21540;DHT22;10931;52.164;5.518;2023-06-19T12:38:15;28.40;53.30
21540;DHT22;10931;52.164;5.518;2023-06-19T12:40:41;28.40;53.30
21540;DHT22;10931;52.164;5.518;2023-06-19T12:43:07;28.40;53.30
21540;DHT22;10931;52.164;5.518;2023-06-19T12:45:33;28.40;53.30
21540;DHT22;10931;52.164;5.518;2023-06-19T12:47:59;28.40;53.30
21540;DHT22;10931;52.164;5.518;2023-06-19T12:50:24;28.40;53.30
21540;DHT22;10931;52.164;5.518;2023-06-19T12:52:50;28.50;53.30
21540;DHT22;10931;52.164;5.518;2023-06-19T12:55:16;28.50;53.30
21540;DHT22;10931;52.164;5.518;2023-06-19T12:57:42;28.50;53.30
21540;DHT22;10931;52.164;5.518;2023-06-19T13:00:11;28.50;53.20
21540;DHT22;10931;52.164;5.518;2023-06-19T13:02:43;28.50;53.20
21540;DHT22;10931;52.164;5.518;2023-06-19T13:05:12;28.50;53.10
21540;DHT22;10931;52.164;5.518;2023-06-19T13:07:38;28.60;53.10
21540;DHT22;10931;52.164;5.518;2023-06-19T13:10:04;28.60;53.10
21540;DHT22;10931;52.164;5.518;2023-06-19T13:12:32;28.60;53.00
21540;DHT22;10931;52.164;5.518;2023-06-19T13:14:58;28.60;52.90
21540;DHT22;10931;52.164;5.518;2023-06-19T13:17:24;28.60;52.90
21540;DHT22;10931;52.164;5.518;2023-06-19T13:19:50;28.60;52.90
21540;DHT22;10931;52.164;5.518;2023-06-19T13:22:15;28.60;52.90
21540;DHT22;10931;52.164;5.518;2023-06-19T13:24:41;28.70;53.00
21540;DHT22;10931;52.164;5.518;2023-06-19T13:27:07;28.70;53.00
21540;DHT22;10931;52.164;5.518;2023-06-19T13:29:35;28.70;53.60
21540;DHT22;10931;52.164;5.518;2023-06-19T13:32:00;28.70;52.90
21540;DHT22;10931;52.164;5.518;2023-06-19T13:34:26;28.70;52.90
21540;DHT22;10931;52.164;5.518;2023-06-19T13:36:52;28.70;52.80
21540;DHT22;10931;52.164;5.518;2023-06-19T13:39:20;28.70;52.80
21540;DHT22;10931;52.164;5.518;2023-06-19T13:41:47;28.80;52.80
21540;DHT22;10931;52.164;5.518;2023-06-19T13:44:16;28.80;52.90
21540;DHT22;10931;52.164;5.518;2023-06-19T13:46:42;28.80;52.80
21540;DHT22;10931;52.164;5.518;2023-06-19T13:49:11;28.80;52.70
21540;DHT22;10931;52.164;5.518;2023-06-19T13:51:47;28.90;52.80
21540;DHT22;10931;52.164;5.518;2023-06-19T13:54:13;28.90;52.80
21540;DHT22;10931;52.164;5.518;2023-06-19T13:56:54;28.90;52.80
21540;DHT22;10931;52.164;5.518;2023-06-19T13:59:20;28.90;52.70
21540;DHT22;10931;52.164;5.518;2023-06-19T14:01:45;28.90;52.70
21540;DHT22;10931;52.164;5.518;2023-06-19T14:04:11;28.90;52.70
21540;DHT22;10931;52.164;5.518;2023-06-19T14:06:37;28.90;52.70
21540;DHT22;10931;52.164;5.518;2023-06-19T14:09:03;29.00;52.70
21540;DHT22;10931;52.164;5.518;2023-06-19T14:11:29;29.00;52.70
21540;DHT22;10931;52.164;5.518;2023-06-19T14:13:55;29.00;52.70
21540;DHT22;10931;52.164;5.518;2023-06-19T14:16:21;29.00;52.60
21540;DHT22;10931;52.164;5.518;2023-06-19T14:18:46;29.00;52.60
21540;DHT22;10931;52.164;5.518;2023-06-19T14:21:12;29.10;52.70
21540;DHT22;10931;52.164;5.518;2023-06-19T14:23:41;29.10;52.60
21540;DHT22;10931;52.164;5.518;2023-06-19T14:26:12;29.10;52.60
21540;DHT22;10931;52.164;5.518;2023-06-19T14:28:40;29.10;52.60
21540;DHT22;10931;52.164;5.518;2023-06-19T14:31:09;29.10;52.60
21540;DHT22;10931;52.164;5.518;2023-06-19T14:33:34;29.10;52.60
21540;DHT22;10931;52.164;5.518;2023-06-19T14:36:04;29.20;52.90
21540;DHT22;10931;52.164;5.518;2023-06-19T14:38:32;29.20;52.60
21540;DHT22;10931;52.164;5.518;2023-06-19T14:41:02;29.20;53.30
21540;DHT22;10931;52.164;5.518;2023-06-19T14:43:28;29.20;52.60
21540;DHT22;10931;52.164;5.518;2023-06-19T14:45:55;29.20;52.60
21540;DHT22;10931;52.164;5.518;2023-06-19T14:48:33;29.30;52.60
21540;DHT22;10931;52.164;5.518;2023-06-19T14:51:00;29.30;52.60
21540;DHT22;10931;52.164;5.518;2023-06-19T14:53:25;29.30;52.60
21540;DHT22;10931;52.164;5.518;2023-06-19T14:55:51;29.30;52.50
21540;DHT22;10931;52.164;5.518;2023-06-19T14:58:17;29.30;52.50
21540;DHT22;10931;52.164;5.518;2023-06-19T15:00:42;29.40;52.60
21540;DHT22;10931;52.164;5.518;2023-06-19T15:03:08;29.30;52.50
21540;DHT22;10931;52.164;5.518;2023-06-19T15:05:34;29.40;52.50
21540;DHT22;10931;52.164;5.518;2023-06-19T15:08:00;29.40;52.50
21540;DHT22;10931;52.164;5.518;2023-06-19T15:10:27;29.40;52.50
21540;DHT22;10931;52.164;5.518;2023-06-19T15:12:53;29.40;52.50
21540;DHT22;10931;52.164;5.518;2023-06-19T15:15:18;29.50;52.50
21540;DHT22;10931;52.164;5.518;2023-06-19T15:17:44;29.50;52.40
21540;DHT22;10931;52.164;5.518;2023-06-19T15:20:10;29.50;52.40
21540;DHT22;10931;52.164;5.518;2023-06-19T15:22:36;29.50;52.40
21540;DHT22;10931;52.164;5.518;2023-06-19T15:25:02;29.50;52.40
21540;DHT22;10931;52.164;5.518;2023-06-19T15:27:31;29.50;52.30
21540;DHT22;10931;52.164;5.518;2023-06-19T15:29:56;29.60;52.40
21540;DHT22;10931;52.164;5.518;2023-06-19T15:32:31;29.60;52.40
21540;DHT22;10931;52.164;5.518;2023-06-19T15:34:59;29.60;52.30
21540;DHT22;10931;52.164;5.518;2023-06-19T15:37:25;29.60;52.30
21540;DHT22;10931;52.164;5.518;2023-06-19T15:39:56;29.60;52.30
21540;DHT22;10931;52.164;5.518;2023-06-19T15:42:21;29.60;52.20
21540;DHT22;10931;52.164;5.518;2023-06-19T15:44:47;29.70;52.90
21540;DHT22;10931;52.164;5.518;2023-06-19T15:47:13;29.70;52.20
21540;DHT22;10931;52.164;5.518;2023-06-19T15:49:39;29.70;52.20
21540;DHT22;10931;52.164;5.518;2023-06-19T15:52:05;29.70;52.20
21540;DHT22;10931;52.164;5.518;2023-06-19T15:54:30;29.70;52.10
21540;DHT22;10931;52.164;5.518;2023-06-19T15:56:56;29.70;52.00
21540;DHT22;10931;52.164;5.518;2023-06-19T15:59:22;29.80;52.10